Time;durP1;ratioP1;P1;durP2;ratioP2;P2;SDS_P1;SDS_P2;PMS_P1;PMS_P2;Temp;Humidity;BMP_temperature;BMP_pressure;BME280_temperature;BME280_humidity;BME280_pressure;Samples;Min_cycle;Max_cycle;Signal;HPM_P1;HPM_P2
2021/05/23 00:00:27;;;;;;;13.60;6.87;;;;;;;7.41;71.11;96904.41;1693078;83;28092;-89
2021/05/23 00:03:00;;;;;;;10.75;7.22;;;;;;;7.37;71.01;96900.98;1692940;83;25650;-91
2021/05/23 00:05:29;;;;;;;11.90;6.60;;;;;;;7.29;71.07;96901.18;1693082;83;25687;-88
2021/05/23 00:08:06;;;;;;;13.10;6.97;;;;;;;7.27;71.12;96905.41;1692972;83;26061;-90
2021/05/23 00:10:44;;;;;;;10.90;6.37;;;;;;;7.18;71.30;96903.95;1693091;83;25564;-90
2021/05/23 00:13:15;;;;;;;11.45;7.15;;;;;;;7.16;71.48;96903.31;1692934;83;27316;-91
2021/05/23 00:15:52;;;;;;;9.35;6.17;;;;;;;7.21;71.65;96906.23;1693198;83;25592;-91
2021/05/23 00:18:21;;;;;;;10.20;5.92;;;;;;;7.22;71.62;96902.52;1693101;83;25607;-91
2021/05/23 00:20:49;;;;;;;12.63;5.75;;;;;;;7.21;71.69;96906.23;1693062;83;25655;-91
2021/05/23 00:23:16;;;;;;;12.53;6.37;;;;;;;7.23;71.67;96908.20;1693079;83;25292;-91
2021/05/23 00:25:43;;;;;;;9.35;5.80;;;;;;;7.21;71.69;96907.58;1693032;83;27552;-91
2021/05/23 00:28:11;;;;;;;9.90;5.20;;;;;;;7.12;71.75;96904.77;1693031;83;26415;-92
2021/05/23 00:30:39;;;;;;;12.70;5.40;;;;;;;7.08;71.94;96915.58;1679778;83;25965;-89
2021/05/23 00:33:07;;;;;;;8.50;4.28;;;;;;;7.04;72.04;96907.61;1670675;84;25735;-87
2021/05/23 00:35:35;;;;;;;9.65;4.33;;;;;;;7.04;72.34;96910.30;1670723;84;25702;-89
2021/05/23 00:38:03;;;;;;;7.55;4.25;;;;;;;7.01;72.49;96912.03;1670929;84;27439;-89
2021/05/23 00:40:31;;;;;;;7.78;4.87;;;;;;;6.98;72.58;96915.14;1670612;84;25765;-88
2021/05/23 00:42:58;;;;;;;11.70;5.75;;;;;;;6.99;72.60;96916.28;1670672;84;25460;-91
2021/05/23 00:45:26;;;;;;;8.35;5.33;;;;;;;7.01;72.56;96912.03;1670644;84;26076;-92
2021/05/23 00:47:53;;;;;;;8.53;5.87;;;;;;;7.02;72.67;96911.00;1670752;84;25654;-89
2021/05/23 00:50:24;;;;;;;8.30;5.33;;;;;;;7.03;72.68;96908.64;1670657;84;27399;-89
2021/05/23 00:52:53;;;;;;;9.08;5.97;;;;;;;7.02;72.61;96901.61;1670624;84;25803;-91
2021/05/23 00:55:20;;;;;;;9.08;6.08;;;;;;;7.06;72.70;96909.58;1670739;84;25681;-91
2021/05/23 00:57:48;;;;;;;10.25;5.37;;;;;;;7.09;72.72;96906.51;1690727;84;26399;-86
2021/05/23 01:00:48;;;;;;;8.70;5.12;;;;;;;6.99;72.60;96901.52;1670743;84;25739;-90
2021/05/23 01:03:35;;;;;;;8.53;4.62;;;;;;;6.90;72.72;96904.56;1658638;84;28193;-92
2021/05/23 01:06:08;;;;;;;9.40;4.30;;;;;;;6.88;72.87;96900.22;1670610;84;25713;-91
2021/05/23 01:08:37;;;;;;;8.23;4.58;;;;;;;6.85;72.82;96901.98;1670641;84;25652;-90
2021/05/23 01:11:21;;;;;;;7.12;5.10;;;;;;;6.82;72.83;96909.59;1670696;84;25718;-89
2021/05/23 01:14:06;;;;;;;7.55;3.95;;;;;;;6.76;72.93;96901.02;1670688;84;25608;-90
2021/05/23 01:16:40;;;;;;;7.87;4.08;;;;;;;6.80;73.07;96910.30;1690635;84;27356;-88
2021/05/23 01:19:50;;;;;;;7.87;3.92;;;;;;;6.84;73.24;96907.03;1670717;84;25816;-89
2021/05/23 01:22:41;;;;;;;5.95;3.58;;;;;;;6.79;73.30;96909.47;1670754;84;25701;-86
2021/05/23 01:25:19;;;;;;;9.40;3.67;;;;;;;6.70;73.37;96910.67;1670654;84;25674;-87
2021/05/23 01:27:50;;;;;;;9.45;4.42;;;;;;;6.76;73.49;96918.45;1670659;84;25480;-90
2021/05/23 01:30:30;;;;;;;8.90;4.20;;;;;;;6.83;73.52;96920.13;1676623;83;27440;-88
2021/05/23 01:33:01;;;;;;;8.98;3.85;;;;;;;6.79;73.45;96908.13;1692930;83;25758;-91
2021/05/23 01:35:36;;;;;;;8.28;3.80;;;;;;;6.82;73.50;96919.81;1693343;83;25569;-88
2021/05/23 01:38:07;;;;;;;5.28;3.10;;;;;;;6.76;73.44;96915.23;1692001;83;25683;-89
2021/05/23 01:40:35;;;;;;;8.95;3.70;;;;;;;6.76;73.50;96911.20;1692823;83;25663;-89
2021/05/23 01:43:04;;;;;;;6.05;3.95;;;;;;;6.76;73.48;96911.75;1693244;83;27463;-87
2021/05/23 01:45:32;;;;;;;6.62;4.25;;;;;;;6.76;73.44;96915.23;1693037;83;25759;-88
2021/05/23 01:48:00;;;;;;;8.28;3.87;;;;;;;6.70;73.36;96916.05;1693012;83;25707;-88
2021/05/23 01:50:28;;;;;;;8.48;4.05;;;;;;;6.67;73.39;96913.75;1693074;83;25734;-86
2021/05/23 01:52:57;;;;;;;8.50;4.12;;;;;;;6.64;73.50;96912.00;1693208;83;25305;-88
2021/05/23 01:55:25;;;;;;;6.17;3.87;;;;;;;6.55;73.58;96913.99;1693041;83;28276;-91
2021/05/23 01:57:52;;;;;;;5.25;3.67;;;;;;;6.53;73.69;96912.02;1692955;83;25755;-88
2021/05/23 02:00:24;;;;;;;6.45;3.37;;;;;;;6.58;73.81;96918.97;1693003;83;25778;-87
2021/05/23 02:02:51;;;;;;;7.97;3.40;;;;;;;6.56;73.80;96919.67;1693459;83;25649;-90
2021/05/23 02:05:18;;;;;;;11.80;4.22;;;;;;;6.51;73.90;96922.14;1693174;83;25285;-90
2021/05/23 02:07:45;;;;;;;11.22;3.92;;;;;;;6.50;73.97;96923.99;1693113;83;27496;-87
2021/05/23 02:10:16;;;;;;;7.10;3.55;;;;;;;6.53;74.07;96921.40;1693162;83;25694;-89
2021/05/23 02:12:45;;;;;;;7.28;3.90;;;;;;;6.50;73.97;96928.02;1693261;83;25583;-84
2021/05/23 02:15:15;;;;;;;5.53;3.55;;;;;;;6.39;74.12;96915.67;1713437;82;25751;-87
2021/05/23 02:17:45;;;;;;;8.83;3.90;;;;;;;6.34;74.29;96920.78;1693085;83;25686;-85
2021/05/23 02:20:17;;;;;;;5.47;3.35;;;;;;;6.34;74.55;96924.29;1693134;83;28063;-89
2021/05/23 02:22:46;;;;;;;9.27;3.80;;;;;;;6.34;74.66;96924.80;1693296;83;25787;-87
2021/05/23 02:25:17;;;;;;;6.85;3.58;;;;;;;6.36;74.79;96921.42;1707414;79;25678;-82
2021/05/23 02:27:54;;;;;;;6.97;3.35;;;;;;;6.37;74.72;96917.72;1702081;82;25392;-79
2021/05/23 02:30:28;;;;;;;7.08;3.62;;;;;;;6.42;74.69;96923.30;1701531;82;25646;-81
2021/05/23 02:32:57;;;;;;;4.50;3.22;;;;;;;6.45;74.76;96921.57;1670444;85;27964;-79
2021/05/23 02:35:27;;;;;;;5.67;3.05;;;;;;;6.44;74.68;96913.20;1701069;82;25662;-80
2021/05/23 02:37:55;;;;;;;6.85;4.15;;;;;;;6.50;74.69;96920.48;1702858;82;25810;-80
2021/05/23 02:40:24;;;;;;;7.50;3.72;;;;;;;6.55;74.59;96919.87;1702138;82;25691;-80
2021/05/23 02:42:51;;;;;;;5.60;3.47;;;;;;;6.58;74.60;96916.80;1702078;82;25682;-81
2021/05/23 02:45:18;;;;;;;6.10;3.00;;;;;;;6.50;74.47;96915.95;1702104;82;27355;-80
2021/05/23 02:47:47;;;;;;;6.50;3.58;;;;;;;6.50;74.56;96921.82;1671235;85;25741;-79
2021/05/23 02:50:18;;;;;;;10.60;3.60;;;;;;;6.43;74.53;96919.59;1674021;84;26249;-82
2021/05/23 02:52:45;;;;;;;8.48;3.15;;;;;;;6.43;74.71;96921.77;1661817;84;25668;-80
2021/05/23 02:55:14;;;;;;;4.58;3.40;;;;;;;6.43;74.80;96933.00;1673649;84;25238;-79
2021/05/23 02:57:41;;;;;;;4.90;3.35;;;;;;;6.41;74.85;96935.05;1670490;85;27471;-80
2021/05/23 03:00:13;;;;;;;7.62;3.47;;;;;;;6.39;74.83;96934.44;1673451;84;26272;-82
2021/05/23 03:02:40;;;;;;;5.10;3.25;;;;;;;6.37;74.83;96939.16;1669580;85;25595;-79
2021/05/23 03:05:11;;;;;;;6.92;3.70;;;;;;;6.33;74.93;96942.73;1673695;85;25796;-81
2021/05/23 03:07:41;;;;;;;5.10;2.90;;;;;;;6.37;75.07;96943.19;1670503;85;25715;-81
2021/05/23 03:10:13;;;;;;;5.12;2.87;;;;;;;6.42;75.01;96950.11;1673619;84;27524;-80
2021/05/23 03:12:41;;;;;;;4.53;2.77;;;;;;;6.50;74.97;96954.00;1670093;85;25749;-82
2021/05/23 03:15:12;;;;;;;4.33;2.55;;;;;;;6.57;74.96;96960.22;1673383;84;26043;-81
2021/05/23 03:17:40;;;;;;;9.03;3.00;;;;;;;6.61;74.89;96964.17;1670191;85;25664;-87
2021/05/23 03:20:09;;;;;;;6.65;3.30;;;;;;;6.60;74.61;96969.73;1672010;84;25692;-87
2021/05/23 03:22:36;;;;;;;4.80;2.77;;;;;;;6.62;74.66;96972.53;1671988;85;27428;-88
2021/05/23 03:25:08;;;;;;;8.58;3.05;;;;;;;6.62;74.61;96973.88;1643994;84;45594;-87
2021/05/23 03:27:35;;;;;;;4.05;2.58;;;;;;;6.61;74.58;96973.55;1670574;85;26315;-85
2021/05/23 03:30:05;;;;;;;6.22;2.58;;;;;;;6.61;74.64;96972.22;1673516;85;25717;-88
2021/05/23 03:32:32;;;;;;;5.80;3.15;;;;;;;6.62;74.67;96977.90;1670409;85;25651;-86
2021/05/23 03:34:59;;;;;;;5.15;2.98;;;;;;;6.68;74.71;96974.41;1673733;85;27361;-86
2021/05/23 03:37:26;;;;;;;8.98;3.12;;;;;;;6.76;74.73;96976.92;1670315;85;25604;-86
2021/05/23 03:39:52;;;;;;;6.45;2.83;;;;;;;6.78;74.70;96974.87;1673634;85;25258;-86
2021/05/23 03:42:19;;;;;;;7.65;2.67;;;;;;;6.82;74.65;96970.78;1670365;85;25699;-87
2021/05/23 03:44:45;;;;;;;4.03;2.72;;;;;;;6.80;74.66;96967.47;1669051;85;25680;-81
2021/05/23 03:47:12;;;;;;;9.35;2.80;;;;;;;6.84;74.63;96975.45;1665161;85;28119;-80
2021/05/23 03:49:39;;;;;;;6.83;3.22;;;;;;;6.86;74.65;96968.55;1671896;84;25751;-80
2021/05/23 03:52:10;;;;;;;5.00;2.87;;;;;;;6.90;74.58;96966.27;1671859;85;25596;-81
2021/05/23 03:54:37;;;;;;;7.20;3.15;;;;;;;6.92;74.47;96974.95;1671794;84;25665;-81
2021/05/23 03:57:05;;;;;;;4.95;2.87;;;;;;;6.93;74.47;96973.92;1671444;85;25707;-81
2021/05/23 03:59:33;;;;;;;4.00;3.00;;;;;;;6.95;74.44;96974.56;1655536;84;27419;-80
2021/05/23 04:02:00;;;;;;;5.28;2.80;;;;;;;6.86;74.66;96953.27;1670410;85;25851;-84
2021/05/23 04:04:45;;;;;;;3.67;2.80;;;;;;;7.01;74.68;96963.02;1673627;84;25566;-81
2021/05/23 04:06:56;;;;;;;8.05;2.85;;;;;;;7.09;74.89;96954.81;1667025;85;25556;-81
2021/05/23 04:09:22;;;;;;;4.72;2.27;;;;;;;7.19;74.98;96962.80;1673572;85;25697;-81
2021/05/23 04:11:51;;;;;;;5.00;3.02;;;;;;;7.27;75.01;96959.09;1670380;85;27394;-81
2021/05/23 04:14:17;;;;;;;6.45;2.77;;;;;;;7.35;75.01;96958.94;1672008;85;25620;-81
2021/05/23 04:16:44;;;;;;;5.58;2.77;;;;;;;7.43;75.04;96959.27;1670351;85;25692;-81
2021/05/23 04:19:10;;;;;;;6.33;2.72;;;;;;;7.50;74.92;96954.73;1673466;85;25639;-81
2021/05/23 04:21:37;;;;;;;5.15;2.17;;;;;;;7.56;74.94;96952.59;1670520;85;25597;-84
2021/05/23 04:24:04;;;;;;;5.00;2.98;;;;;;;7.63;74.92;96956.61;1701695;82;28039;-81
2021/05/23 04:26:31;;;;;;;7.87;3.35;;;;;;;7.71;74.89;96957.79;1671364;84;25629;-84
2021/05/23 04:28:58;;;;;;;5.97;3.00;;;;;;;7.77;74.80;96956.95;1683340;84;25659;-82
2021/05/23 04:31:24;;;;;;;9.20;3.20;;;;;;;7.82;74.85;96952.64;1672711;85;25645;-82
2021/05/23 04:33:51;;;;;;;8.25;2.98;;;;;;;7.88;74.84;96955.00;1683371;84;26074;-84
2021/05/23 04:36:18;;;;;;;6.40;3.42;;;;;;;7.93;74.78;96956.57;1672961;85;27363;-81
2021/05/23 04:38:44;;;;;;;6.15;3.27;;;;;;;8.00;74.73;96957.39;1683447;84;25787;-80
2021/05/23 04:41:13;;;;;;;6.37;3.15;;;;;;;8.07;74.76;96947.48;1672893;85;25668;-85
2021/05/23 04:43:40;;;;;;;5.97;3.30;;;;;;;8.16;74.89;96952.95;1683504;84;25644;-87
2021/05/23 04:46:06;;;;;;;7.22;3.87;;;;;;;8.27;74.92;96946.95;1672904;85;25736;-82
2021/05/23 04:48:33;;;;;;;7.72;3.47;;;;;;;8.41;74.95;96951.02;1683542;84;27339;-81
2021/05/23 04:51:00;;;;;;;8.20;3.37;;;;;;;8.49;74.71;96949.44;1672805;85;25667;-81
2021/05/23 04:53:26;;;;;;;6.50;3.10;;;;;;;8.57;74.59;96952.73;1683589;84;25698;-83
2021/05/23 04:55:53;;;;;;;4.67;3.17;;;;;;;8.66;74.50;96952.01;1672887;85;26068;-82
2021/05/23 04:58:19;;;;;;;6.95;3.45;;;;;;;8.75;74.43;96955.30;1683508;84;25619;-83
2021/05/23 05:00:46;;;;;;;7.67;3.22;;;;;;;8.84;74.40;96953.50;1672640;85;26779;-88
2021/05/23 05:03:13;;;;;;;8.10;3.42;;;;;;;8.94;74.29;96954.40;1683363;84;25742;-84
2021/05/23 05:05:40;;;;;;;8.25;4.25;;;;;;;9.02;74.16;96951.50;1673032;85;25667;-81
2021/05/23 05:08:06;;;;;;;7.20;4.03;;;;;;;9.12;74.24;96949.69;1683541;84;25558;-82
2021/05/23 05:10:33;;;;;;;7.55;4.40;;;;;;;9.22;74.44;96941.98;1672660;85;25671;-81
2021/05/23 05:13:00;;;;;;;8.90;5.10;;;;;;;9.30;74.59;96943.08;1683064;84;28065;-82
2021/05/23 05:15:26;;;;;;;8.50;4.42;;;;;;;9.44;74.50;96943.84;1673274;85;25982;-88
2021/05/23 05:17:53;;;;;;;4.72;3.25;;;;;;;9.55;74.36;96943.98;1674508;84;26383;-89
2021/05/23 05:20:20;;;;;;;5.67;2.52;;;;;;;9.71;74.12;96948.88;1674395;85;25650;-88
2021/05/23 05:22:47;;;;;;;4.03;2.33;;;;;;;9.86;73.75;96947.75;1674457;84;25575;-88
2021/05/23 05:25:14;;;;;;;4.90;2.15;;;;;;;10.00;73.31;96949.31;1674309;85;27377;-89
2021/05/23 05:27:41;;;;;;;4.42;1.67;;;;;;;10.14;72.93;96946.83;1672236;84;26294;-89
2021/05/23 05:30:08;;;;;;;3.40;1.67;;;;;;;10.30;72.54;96946.28;1672016;85;25659;-89
2021/05/23 05:32:35;;;;;;;6.08;2.15;;;;;;;10.45;72.29;96952.70;1671905;84;25644;-88
2021/05/23 05:35:02;;;;;;;4.15;1.92;;;;;;;10.59;71.92;96953.41;1671907;85;25694;-88
2021/05/23 05:37:29;;;;;;;3.80;1.62;;;;;;;10.73;71.74;96958.45;1671931;84;27334;-86
2021/05/23 05:39:55;;;;;;;3.60;2.00;;;;;;;10.87;71.70;96959.13;1671719;85;25687;-88
2021/05/23 05:42:22;;;;;;;4.95;1.85;;;;;;;11.00;71.22;96956.28;1671890;84;25738;-87
2021/05/23 05:44:49;;;;;;;3.95;1.75;;;;;;;11.15;70.95;96955.39;1671936;85;26176;-89
2021/05/23 05:47:16;;;;;;;3.33;2.00;;;;;;;11.30;70.51;96956.89;1672093;84;25767;-88
2021/05/23 05:49:42;;;;;;;3.62;1.75;;;;;;;11.42;70.02;96952.37;1703417;82;27459;-84
2021/05/23 05:52:09;;;;;;;3.65;2.10;;;;;;;11.53;69.95;96958.35;1703402;82;25668;-87
2021/05/23 05:54:35;;;;;;;2.77;1.62;;;;;;;11.63;69.40;96955.92;1671778;85;25815;-90
2021/05/23 05:57:02;;;;;;;3.50;2.00;;;;;;;11.74;69.20;96948.38;1671930;84;25715;-90
2021/05/23 05:59:29;;;;;;;2.05;1.72;;;;;;;11.83;69.19;96941.62;1671971;85;25705;-88
2021/05/23 06:01:56;;;;;;;2.83;1.70;;;;;;;11.94;69.13;96942.73;1670649;84;27277;-91
2021/05/23 06:04:23;;;;;;;2.65;1.67;;;;;;;12.06;68.91;96948.17;1670354;85;25603;-84
2021/05/23 06:06:49;;;;;;;2.50;1.60;;;;;;;12.15;68.88;96947.60;1673518;85;25722;-91
2021/05/23 06:09:16;;;;;;;3.42;1.67;;;;;;;12.25;68.61;96942.97;1670389;85;26103;-87
2021/05/23 06:11:43;;;;;;;4.10;1.62;;;;;;;12.34;68.42;96951.03;1673970;85;25690;-85
2021/05/23 06:14:09;;;;;;;3.10;1.87;;;;;;;12.43;67.96;96956.42;1655643;85;27283;-82
2021/05/23 06:16:36;;;;;;;3.70;1.82;;;;;;;12.49;67.78;96953.29;1671778;84;25816;-82
2021/05/23 06:19:03;;;;;;;4.10;1.62;;;;;;;12.56;67.71;96961.58;1671871;85;25447;-89
2021/05/23 06:21:32;;;;;;;4.97;1.77;;;;;;;12.67;67.88;96961.84;1671878;84;25645;-89
2021/05/23 06:23:59;;;;;;;6.70;2.00;;;;;;;12.77;67.81;96967.50;1671751;85;25768;-82
2021/05/23 06:26:26;;;;;;;2.92;1.77;;;;;;;12.86;67.37;96956.06;1671634;84;28512;-83
2021/05/23 06:28:54;;;;;;;4.58;1.98;;;;;;;12.93;66.61;96959.98;1671753;85;25601;-82
2021/05/23 06:31:22;;;;;;;3.87;2.02;;;;;;;12.99;66.58;96961.77;1671888;84;25701;-86
2021/05/23 06:33:49;;;;;;;2.72;1.50;;;;;;;13.05;66.40;96960.80;1701619;82;25722;-89
2021/05/23 06:36:15;;;;;;;4.53;1.65;;;;;;;13.13;66.00;96955.56;1703466;82;26225;-88
2021/05/23 06:38:42;;;;;;;2.40;1.35;;;;;;;13.18;65.51;96956.52;1672063;85;27995;-85
2021/05/23 06:41:08;;;;;;;3.10;1.57;;;;;;;13.20;64.96;96951.69;1652789;84;25672;-90
2021/05/23 06:43:35;;;;;;;2.45;1.80;;;;;;;13.23;64.76;96957.99;1656539;85;25619;-86
2021/05/23 06:46:01;;;;;;;2.50;1.35;;;;;;;13.27;64.61;96953.75;1668228;84;25714;-91
2021/05/23 06:48:28;;;;;;;4.03;2.15;;;;;;;13.29;64.32;96946.17;1658908;85;25679;-87
2021/05/23 06:50:55;;;;;;;4.55;2.02;;;;;;;13.36;64.04;96947.95;1671928;84;27559;-89
2021/05/23 06:53:21;;;;;;;3.27;1.60;;;;;;;13.38;63.78;96944.47;1671766;85;25963;-85
2021/05/23 06:55:48;;;;;;;2.37;1.37;;;;;;;13.40;63.57;96949.12;1672009;84;25712;-87
2021/05/23 06:58:14;;;;;;;2.37;1.60;;;;;;;13.44;63.34;96955.69;1672030;85;26441;-88
2021/05/23 07:00:41;;;;;;;1.95;1.42;;;;;;;13.50;63.18;96957.45;1671735;84;25606;-86
2021/05/23 07:03:07;;;;;;;3.12;1.65;;;;;;;13.56;63.05;96953.77;1670962;85;27319;-91
2021/05/23 07:05:34;;;;;;;2.75;1.50;;;;;;;13.62;62.73;96955.53;1673488;85;25671;-91
2021/05/23 07:08:01;;;;;;;2.20;1.30;;;;;;;13.62;62.52;96957.71;1669908;85;26381;-85
2021/05/23 07:10:27;;;;;;;4.42;1.30;;;;;;;13.68;62.25;96967.58;1673889;84;26129;-90
2021/05/23 07:12:54;;;;;;;3.67;1.42;;;;;;;13.73;62.27;96961.44;1672018;84;25733;-90
2021/05/23 07:15:21;;;;;;;3.05;1.70;;;;;;;13.81;62.19;96957.51;1671945;85;27246;-90
2021/05/23 07:17:49;;;;;;;2.52;1.55;;;;;;;13.86;61.98;96953.02;1671849;84;25668;-90
2021/05/23 07:20:16;;;;;;;2.75;1.72;;;;;;;13.93;62.13;96950.14;1671932;85;26358;-89
2021/05/23 07:22:42;;;;;;;3.42;1.60;;;;;;;14.04;61.88;96956.03;1671863;84;25682;-90
2021/05/23 07:25:11;;;;;;;3.08;1.60;;;;;;;14.08;61.63;96953.67;1671970;85;25697;-90
2021/05/23 07:27:38;;;;;;;3.65;1.42;;;;;;;14.18;61.35;96956.55;1671865;84;27275;-93
2021/05/23 07:30:06;;;;;;;3.20;1.30;;;;;;;14.31;61.27;96945.38;1672009;85;25639;-92
2021/05/23 07:32:33;;;;;;;1.55;1.25;;;;;;;14.44;60.90;96951.05;1672026;84;25646;-94
2021/05/23 07:35:00;;;;;;;4.75;2.27;;;;;;;14.55;60.96;96948.79;1671985;85;26317;-92
2021/05/23 07:37:26;;;;;;;3.42;2.00;;;;;;;14.62;60.59;96948.90;1671894;84;25702;-92
2021/05/23 07:39:53;;;;;;;2.52;1.92;;;;;;;14.71;60.11;96950.16;1671769;85;27492;-91
2021/05/23 07:42:19;;;;;;;2.60;1.70;;;;;;;14.84;60.28;96953.59;1671942;84;26237;-89
2021/05/23 07:44:46;;;;;;;3.45;2.10;;;;;;;14.97;60.21;96949.97;1671949;85;25671;-93
2021/05/23 07:47:12;;;;;;;3.55;2.08;;;;;;;15.10;59.96;96955.58;1672020;84;25668;-91
2021/05/23 07:49:42;;;;;;;3.45;1.70;;;;;;;15.21;59.77;96949.23;1671861;85;25262;-90
2021/05/23 07:52:11;;;;;;;4.60;1.90;;;;;;;15.30;59.25;96949.08;1671689;84;28034;-92
2021/05/23 07:54:38;;;;;;;1.87;1.52;;;;;;;15.45;59.23;96943.02;1671876;85;25697;-94
2021/05/23 07:57:06;;;;;;;4.55;2.02;;;;;;;15.66;59.18;96939.48;1672045;84;25645;-94
2021/05/23 07:59:33;;;;;;;2.80;1.85;;;;;;;15.83;58.83;96935.30;1671847;85;26011;-90
2021/05/23 08:02:00;;;;;;;5.45;2.10;;;;;;;16.02;58.46;96932.52;1670775;84;25682;-93
2021/05/23 08:04:26;;;;;;;3.27;1.82;;;;;;;16.17;58.25;96926.41;1670734;84;27425;-93
2021/05/23 08:06:53;;;;;;;3.17;1.62;;;;;;;16.35;57.96;96925.18;1673762;85;25616;-95
2021/05/23 08:09:20;;;;;;;4.55;1.92;;;;;;;16.45;57.52;96934.26;1670752;85;25730;-91
2021/05/23 08:11:47;;;;;;;2.52;1.62;;;;;;;16.52;57.51;96926.70;1673899;85;26293;-93
2021/05/23 08:14:14;;;;;;;3.22;1.72;;;;;;;16.60;57.10;96929.47;1670853;85;25513;-95
2021/05/23 08:16:43;;;;;;;4.28;1.90;;;;;;;16.72;56.96;96921.97;1702198;82;27326;-92
2021/05/23 08:19:12;;;;;;;4.20;1.80;;;;;;;16.86;56.69;96922.34;1670454;85;25682;-88
2021/05/23 08:21:39;;;;;;;3.02;2.02;;;;;;;17.00;56.45;96918.06;1641536;86;25692;-92
2021/05/23 08:24:08;;;;;;;3.55;1.60;;;;;;;17.16;56.44;96916.22;1642200;87;25685;-93
2021/05/23 08:26:35;;;;;;;3.72;1.37;;;;;;;17.34;56.15;96914.42;1642084;87;25648;-92
2021/05/23 08:29:03;;;;;;;5.90;1.50;;;;;;;17.46;55.96;96925.92;1642094;86;27326;-93
2021/05/23 08:31:30;;;;;;;7.05;2.05;;;;;;;17.79;55.43;96915.69;1642886;87;25660;-90
2021/05/23 08:33:57;;;;;;;2.83;1.57;;;;;;;18.20;55.21;96906.48;1642340;87;25715;-95
2021/05/23 08:36:24;;;;;;;1.37;1.27;;;;;;;18.61;54.40;96910.06;1642126;87;25682;-91
2021/05/23 08:38:51;;;;;;;2.37;1.42;;;;;;;18.98;53.86;96905.64;1642887;87;25683;-94
2021/05/23 08:41:20;;;;;;;3.37;1.52;;;;;;;19.36;53.31;96911.55;1642025;87;27409;-92
2021/05/23 08:43:51;;;;;;;1.72;1.50;;;;;;;19.69;52.79;96910.06;1641982;87;25625;-94
2021/05/23 08:46:18;;;;;;;4.83;1.47;;;;;;;20.12;52.32;96902.98;1642418;87;25611;-94
2021/05/23 08:48:46;;;;;;;2.70;1.55;;;;;;;20.63;51.53;96899.88;1642010;87;25719;-93
2021/05/23 08:51:13;;;;;;;3.85;1.62;;;;;;;21.05;50.91;96894.52;1641956;87;25645;-92
2021/05/23 08:53:39;;;;;;;2.35;1.32;;;;;;;21.02;49.98;96860.80;1624930;87;27390;-89
2021/05/23 08:56:06;;;;;;;2.42;1.30;;;;;;;21.26;49.71;96895.69;1641904;87;25607;-94
2021/05/23 08:58:33;;;;;;;2.52;1.37;;;;;;;21.39;49.21;96894.44;1641895;87;25768;-92
2021/05/23 09:00:59;;;;;;;2.72;1.10;;;;;;;21.47;48.43;96898.48;1641540;87;25370;-91
2021/05/23 09:03:26;;;;;;;2.37;1.27;;;;;;;21.80;48.88;96887.88;1642016;87;26099;-89
2021/05/23 09:05:57;;;;;;;3.10;1.17;;;;;;;21.88;47.38;96889.95;1642119;86;27326;-90
2021/05/23 09:08:28;;;;;;;2.45;1.45;;;;;;;21.78;46.86;96890.10;1641856;87;25668;-83
2021/05/23 09:10:58;;;;;;;2.15;1.30;;;;;;;21.63;46.22;96897.16;1642336;87;25827;-84
2021/05/23 09:13:34;;;;;;;1.92;1.25;;;;;;;21.63;45.91;96899.09;1671855;84;25992;-87
2021/05/23 09:16:05;;;;;;;3.70;1.40;;;;;;;21.47;45.66;96899.86;1672425;85;25624;-84
2021/05/23 09:18:48;;;;;;;2.33;1.35;;;;;;;21.29;45.51;96900.61;1672887;84;27401;-85
2021/05/23 09:21:22;;;;;;;2.42;1.40;;;;;;;21.14;45.68;96896.06;1665887;85;25600;-88
2021/05/23 09:23:58;;;;;;;2.17;1.50;;;;;;;21.00;45.52;96892.40;1672267;84;25702;-92
2021/05/23 09:26:29;;;;;;;1.62;1.15;;;;;;;20.72;45.23;96896.78;1672757;85;26126;-83
2021/05/23 09:29:05;;;;;;;1.52;1.17;;;;;;;20.51;45.16;96898.06;1674111;84;25651;-94
2021/05/23 09:31:32;;;;;;;1.80;1.02;;;;;;;20.51;45.16;96898.06;1672725;85;27460;-94
2021/05/23 09:33:59;;;;;;;2.33;1.05;;;;;;;20.42;45.26;96895.92;1674445;84;25733;-91
2021/05/23 09:36:26;;;;;;;1.35;1.00;;;;;;;20.34;45.02;96886.92;1675578;85;25552;-88
2021/05/23 09:39:03;;;;;;;2.08;1.30;;;;;;;20.25;45.20;96894.13;1675385;84;25718;-89
2021/05/23 09:41:38;;;;;;;3.27;1.72;;;;;;;20.23;45.52;96900.98;1675232;84;25614;-87
2021/05/23 09:44:21;;;;;;;2.42;1.30;;;;;;;20.23;45.40;96896.88;1669826;84;32159;-91
2021/05/23 09:47:00;;;;;;;2.22;1.32;;;;;;;20.02;44.82;96893.47;1674777;85;25635;-89
2021/05/23 09:49:29;;;;;;;2.65;1.30;;;;;;;19.81;44.81;96896.03;1645168;86;25696;-89
2021/05/23 09:52:02;;;;;;;3.00;1.22;;;;;;;19.64;44.82;96904.08;1674665;84;25685;-88
2021/05/23 09:54:34;;;;;;;2.08;1.12;;;;;;;19.50;44.78;96892.64;1674171;85;25732;-94
2021/05/23 09:57:06;;;;;;;3.37;1.27;;;;;;;19.39;44.95;96896.77;1670697;84;27358;-86
2021/05/23 09:59:32;;;;;;;4.25;1.50;;;;;;;19.28;44.69;96895.72;1664912;85;25702;-89
2021/05/23 10:02:09;;;;;;;3.30;1.07;;;;;;;19.12;44.77;96899.04;1672773;84;25720;-91
2021/05/23 10:04:37;;;;;;;5.47;1.47;;;;;;;19.01;44.98;96902.91;1674740;85;25374;-92
2021/05/23 10:07:10;;;;;;;3.45;1.87;;;;;;;18.88;45.25;96904.30;1662881;84;25642;-93
2021/05/23 10:09:38;;;;;;;4.17;1.57;;;;;;;18.80;45.62;96899.39;1673957;85;27339;-92
2021/05/23 10:12:08;;;;;;;3.17;1.40;;;;;;;18.78;45.99;96897.48;1683673;84;25728;-91
2021/05/23 10:14:36;;;;;;;1.85;1.20;;;;;;;18.83;46.34;96896.12;1673485;85;25707;-86
2021/05/23 10:17:07;;;;;;;2.85;1.30;;;;;;;18.83;45.97;96908.42;1683725;84;25961;-93
2021/05/23 10:19:36;;;;;;;2.12;1.30;;;;;;;18.78;45.72;96911.16;1674033;85;25230;-92
2021/05/23 10:22:06;;;;;;;2.25;1.47;;;;;;;18.77;45.94;96907.32;1684028;84;27401;-89
2021/05/23 10:24:37;;;;;;;4.72;1.42;;;;;;;18.71;45.89;96907.89;1673303;85;25742;-95
2021/05/23 10:27:19;;;;;;;4.47;1.45;;;;;;;18.61;45.48;96910.61;1684422;84;25265;-91
2021/05/23 10:29:49;;;;;;;1.55;1.32;;;;;;;18.63;45.46;96912.53;1673620;85;25630;-85
2021/05/23 10:32:21;;;;;;;1.42;1.10;;;;;;;18.58;45.23;96913.37;1673053;84;25604;-88
2021/05/23 10:34:49;;;;;;;4.17;1.42;;;;;;;18.47;44.89;96911.70;1673849;85;28232;-89
2021/05/23 10:37:29;;;;;;;1.62;1.20;;;;;;;18.38;44.99;96908.40;1673001;84;25712;-86
2021/05/23 10:39:57;;;;;;;4.37;1.10;;;;;;;18.32;45.06;96904.31;1673783;85;25631;-89
2021/05/23 10:42:31;;;;;;;3.92;1.20;;;;;;;18.33;45.40;96913.33;1673439;84;25501;-93
2021/05/23 10:44:58;;;;;;;3.80;1.50;;;;;;;18.27;44.69;96911.67;1674029;85;25688;-92
2021/05/23 10:47:31;;;;;;;3.42;1.60;;;;;;;18.18;44.86;96908.67;1673174;84;27266;-91
2021/05/23 10:50:08;;;;;;;1.75;1.22;;;;;;;18.27;45.21;96909.77;1672804;85;26279;-91
2021/05/23 10:52:37;;;;;;;3.83;1.30;;;;;;;18.36;45.34;96905.39;1672914;84;25453;-87
2021/05/23 10:55:17;;;;;;;2.27;1.25;;;;;;;18.48;45.14;96912.48;1673686;85;25705;-84
2021/05/23 10:57:47;;;;;;;2.25;1.25;;;;;;;18.57;45.02;96910.88;1671495;84;25669;-83
2021/05/23 11:00:32;;;;;;;1.87;1.27;;;;;;;18.66;45.11;96909.25;1673635;85;28241;-86
2021/05/23 11:03:10;;;;;;;4.37;1.17;;;;;;;18.67;44.72;96912.26;1672887;84;25697;-84
2021/05/23 11:05:36;;;;;;;2.58;1.37;;;;;;;18.54;44.75;96900.48;1674036;85;25760;-89
2021/05/23 11:08:07;;;;;;;3.62;1.57;;;;;;;18.48;44.79;96904.30;1673492;84;25612;-83
2021/05/23 11:10:50;;;;;;;4.28;1.55;;;;;;;18.50;44.98;96904.84;1674615;85;25230;-88
2021/05/23 11:13:31;;;;;;;3.20;1.10;;;;;;;18.57;45.42;96906.23;1673027;84;27952;-86
2021/05/23 11:16:10;;;;;;;2.08;1.30;;;;;;;18.63;45.09;96911.16;1670048;85;25794;-89
2021/05/23 11:18:37;;;;;;;1.55;1.20;;;;;;;18.61;44.86;96903.77;1674197;84;25629;-93
2021/05/23 11:21:12;;;;;;;1.40;1.30;;;;;;;18.55;44.92;96904.85;1674446;85;26016;-86
2021/05/23 11:23:50;;;;;;;3.60;1.50;;;;;;;18.50;44.75;96910.31;1675369;84;25661;-92
2021/05/23 11:26:18;;;;;;;3.50;1.30;;;;;;;18.43;44.79;96910.59;1674788;85;27027;-87
2021/05/23 11:28:54;;;;;;;1.75;1.20;;;;;;;18.42;45.17;96914.97;1671510;84;26002;-85
2021/05/23 11:31:31;;;;;;;2.85;1.50;;;;;;;18.36;44.76;96919.05;1670965;85;25620;-92
2021/05/23 11:33:59;;;;;;;3.92;0.80;;;;;;;18.33;44.87;96940.11;1702215;82;25811;-83
2021/05/23 11:36:30;;;;;;;8.38;1.17;;;;;;;18.22;44.45;96941.73;1702936;83;25636;-81
2021/05/23 11:38:59;;;;;;;2.90;0.95;;;;;;;17.94;44.53;96950.69;1667232;85;27502;-82
2021/05/23 11:41:32;;;;;;;3.02;1.10;;;;;;;17.43;44.50;96949.64;1667261;84;25677;-81
2021/05/23 11:44:00;;;;;;;1.92;0.80;;;;;;;17.02;44.64;96951.89;1672089;84;25651;-82
2021/05/23 11:46:29;;;;;;;2.45;1.50;;;;;;;16.51;45.36;96947.39;1672044;84;25719;-81